Time;durP1;ratioP1;P1;durP2;ratioP2;P2;SDS_P1;SDS_P2;PMS_P1;PMS_P2;Temp;Humidity;BMP_temperature;BMP_pressure;BME280_temperature;BME280_humidity;BME280_pressure;Samples;Min_cycle;Max_cycle;Signal;HPM_P1;HPM_P2
2023/06/03 00:00:04;;;;;;;4.43;3.33;;;23.80;49.50;;;;;;6184841;23;20210;-68
2023/06/03 00:02:29;;;;;;;4.30;3.00;;;23.70;49.50;;;;;;6184943;23;20222;-69
2023/06/03 00:04:55;;;;;;;4.97;2.50;;;23.80;49.50;;;;;;6184784;23;20718;-70
2023/06/03 00:07:20;;;;;;;3.63;2.30;;;23.80;49.50;;;;;;6184950;23;20202;-69
2023/06/03 00:09:46;;;;;;;3.00;2.67;;;23.80;49.50;;;;;;6185161;23;20148;-69
2023/06/03 00:12:12;;;;;;;3.93;2.87;;;23.80;49.60;;;;;;6184767;23;20162;-69
2023/06/03 00:14:37;;;;;;;4.73;2.90;;;23.80;49.60;;;;;;6184989;23;20479;-70
2023/06/03 00:17:04;;;;;;;3.20;2.47;;;23.80;49.60;;;;;;6185023;23;20222;-69
2023/06/03 00:19:30;;;;;;;3.80;2.93;;;23.80;49.50;;;;;;6184783;23;20152;-69
2023/06/03 00:21:55;;;;;;;4.13;3.10;;;23.80;49.40;;;;;;6184623;23;20433;-68
2023/06/03 00:24:24;;;;;;;2.90;2.60;;;23.80;49.20;;;;;;6184568;23;20168;-69
2023/06/03 00:26:51;;;;;;;3.10;2.80;;;23.80;49.20;;;;;;6184741;23;20247;-69
2023/06/03 00:29:17;;;;;;;7.13;3.23;;;23.80;49.10;;;;;;6184663;23;20896;-70
2023/06/03 00:31:43;;;;;;;3.60;3.00;;;23.80;49.00;;;;;;6184831;23;20379;-69
2023/06/03 00:34:09;;;;;;;5.23;3.40;;;23.80;49.00;;;;;;6158360;23;20418;-69
2023/06/03 00:36:35;;;;;;;4.63;3.20;;;23.80;49.20;;;;;;6184609;23;20167;-70
2023/06/03 00:39:01;;;;;;;5.87;3.50;;;23.80;49.20;;;;;;6185312;23;20378;-69
2023/06/03 00:41:27;;;;;;;3.90;3.17;;;23.80;49.10;;;;;;6184645;23;20379;-69
2023/06/03 00:43:52;;;;;;;5.50;3.40;;;23.80;48.90;;;;;;6184510;23;20186;-67
2023/06/03 00:46:19;;;;;;;4.60;2.83;;;23.80;48.90;;;;;;6184542;23;20150;-69
2023/06/03 00:48:45;;;;;;;5.20;3.07;;;23.80;48.80;;;;;;6184664;23;20226;-69
2023/06/03 00:51:11;;;;;;;6.83;3.17;;;23.80;48.80;;;;;;6184889;23;20740;-69
2023/06/03 00:53:37;;;;;;;3.10;2.73;;;23.80;49.30;;;;;;6184355;23;20196;-69
2023/06/03 00:56:04;;;;;;;4.63;3.57;;;23.80;48.70;;;;;;6184504;23;20410;-69
2023/06/03 00:58:30;;;;;;;4.80;2.73;;;23.80;48.60;;;;;;6184957;23;20455;-69
2023/06/03 01:00:55;;;;;;;4.40;2.80;;;23.80;48.60;;;;;;6183985;23;20383;-70
2023/06/03 01:03:21;;;;;;;3.73;3.07;;;23.80;48.50;;;;;;6184270;23;20932;-69
2023/06/03 01:06:48;;;;;;;4.77;3.07;;;23.80;48.60;;;;;;6184524;23;20159;-69
2023/06/03 01:09:26;;;;;;;4.10;3.70;;;23.80;48.80;;;;;;6040352;23;20426;-68
2023/06/03 01:12:20;;;;;;;3.53;2.90;;;23.80;49.00;;;;;;6064677;23;20378;-70
2023/06/03 01:15:08;;;;;;;3.37;2.60;;;23.80;49.10;;;;;;6152418;23;20427;-69
2023/06/03 01:17:39;;;;;;;3.00;2.70;;;23.80;49.20;;;;;;6184687;23;20693;-70
2023/06/03 01:20:10;;;;;;;3.70;2.73;;;23.80;49.20;;;;;;6184537;23;20393;-68
2023/06/03 01:22:41;;;;;;;3.63;2.87;;;23.70;49.10;;;;;;6184190;23;20418;-69
2023/06/03 01:25:12;;;;;;;3.80;2.53;;;23.80;49.20;;;;;;6184050;23;20407;-70
2023/06/03 01:27:40;;;;;;;5.13;3.30;;;23.80;49.20;;;;;;6157997;23;20375;-69
2023/06/03 01:30:08;;;;;;;5.33;3.23;;;23.80;49.20;;;;;;6184099;23;20375;-68
2023/06/03 01:32:37;;;;;;;3.00;2.70;;;23.80;49.20;;;;;;6184502;23;20375;-69
2023/06/03 01:35:04;;;;;;;5.43;3.43;;;23.80;49.20;;;;;;6184365;23;20395;-68
2023/06/03 01:37:31;;;;;;;3.70;3.10;;;23.80;49.20;;;;;;6184260;23;20371;-69
2023/06/03 01:39:57;;;;;;;3.50;2.57;;;23.80;49.20;;;;;;6184299;23;20379;-69
2023/06/03 01:42:22;;;;;;;3.73;2.93;;;23.80;49.10;;;;;;6184531;23;20747;-69
2023/06/03 01:44:48;;;;;;;4.87;3.17;;;23.80;49.10;;;;;;6184314;23;20391;-69
2023/06/03 01:47:15;;;;;;;4.53;3.63;;;23.80;49.20;;;;;;6184259;23;20147;-69
2023/06/03 01:49:40;;;;;;;4.00;3.60;;;23.80;49.10;;;;;;6184278;23;20151;-67
2023/06/03 01:52:06;;;;;;;4.53;3.30;;;23.80;49.20;;;;;;6184260;23;20714;-69
2023/06/03 01:54:32;;;;;;;3.97;3.03;;;23.80;49.10;;;;;;6184220;23;20168;-69
2023/06/03 01:56:57;;;;;;;4.90;3.33;;;23.80;49.10;;;;;;6184276;23;20167;-69
2023/06/03 01:59:24;;;;;;;3.80;3.03;;;23.80;49.10;;;;;;6184412;23;20579;-68
2023/06/03 02:01:59;;;;;;;4.23;3.20;;;23.80;49.00;;;;;;6157901;23;20229;-69
2023/06/03 02:04:26;;;;;;;4.10;2.90;;;23.80;49.00;;;;;;6184454;23;20853;-69
2023/06/03 02:06:53;;;;;;;5.70;3.30;;;23.80;48.90;;;;;;6184545;23;20674;-68
2023/06/03 02:09:24;;;;;;;4.07;2.83;;;23.80;48.70;;;;;;6184213;23;20364;-67
2023/06/03 02:11:51;;;;;;;5.00;3.20;;;23.80;48.50;;;;;;6184355;23;20806;-69
2023/06/03 02:14:17;;;;;;;4.20;3.27;;;23.80;48.30;;;;;;6185873;23;20394;-68
2023/06/03 02:16:42;;;;;;;6.17;3.70;;;23.80;48.20;;;;;;6186051;23;20363;-68
2023/06/03 02:19:16;;;;;;;3.70;3.40;;;23.80;48.20;;;;;;6185954;23;20371;-69
2023/06/03 02:21:42;;;;;;;5.07;3.40;;;23.80;48.10;;;;;;6185920;23;20250;-69
2023/06/03 02:24:08;;;;;;;5.43;3.23;;;23.80;48.10;;;;;;6159423;23;20399;-69
2023/06/03 02:26:35;;;;;;;5.07;3.40;;;23.80;48.10;;;;;;6186149;23;20422;-69
2023/06/03 02:29:01;;;;;;;3.70;3.20;;;23.80;48.00;;;;;;6186100;23;20374;-69
2023/06/03 02:31:27;;;;;;;6.03;3.40;;;23.80;48.10;;;;;;6185838;23;20459;-69
2023/06/03 02:33:53;;;;;;;4.63;3.70;;;23.80;48.00;;;;;;6185916;23;20443;-68
2023/06/03 02:36:18;;;;;;;4.17;3.17;;;23.70;48.10;;;;;;6159460;23;20156;-69
2023/06/03 02:38:50;;;;;;;6.13;3.60;;;23.70;48.20;;;;;;6186296;23;20183;-69
2023/06/03 02:41:15;;;;;;;5.40;3.47;;;23.70;48.10;;;;;;6185844;23;20147;-68
2023/06/03 02:43:41;;;;;;;3.53;3.23;;;23.70;47.90;;;;;;6185690;23;20441;-69
2023/06/03 02:46:07;;;;;;;3.67;2.87;;;23.70;47.90;;;;;;6185756;23;20186;-69
2023/06/03 02:48:34;;;;;;;3.70;3.40;;;23.70;47.90;;;;;;6185795;23;20386;-68
2023/06/03 02:51:00;;;;;;;4.20;3.80;;;23.70;47.80;;;;;;6159432;23;20214;-69
2023/06/03 02:53:26;;;;;;;4.80;3.63;;;23.70;47.80;;;;;;6185598;23;20367;-69
2023/06/03 02:55:51;;;;;;;5.80;3.50;;;23.70;47.70;;;;;;6185750;23;20164;-68
2023/06/03 02:58:17;;;;;;;4.60;2.97;;;23.70;47.80;;;;;;6185593;23;20136;-69
2023/06/03 03:00:43;;;;;;;4.10;3.60;;;23.70;47.70;;;;;;6185593;23;20152;-69
2023/06/03 03:03:09;;;;;;;3.40;2.93;;;23.70;47.70;;;;;;6185288;23;20422;-68
2023/06/03 03:05:35;;;;;;;4.37;3.77;;;23.70;47.80;;;;;;6185205;23;20203;-68
2023/06/03 03:08:01;;;;;;;5.87;3.63;;;23.70;47.70;;;;;;6185638;23;20739;-69
2023/06/03 03:10:27;;;;;;;4.63;3.50;;;23.70;47.70;;;;;;6185575;23;20383;-68
2023/06/03 03:12:53;;;;;;;4.77;3.33;;;23.70;47.60;;;;;;6158820;23;20870;-68
2023/06/03 03:15:19;;;;;;;4.73;3.90;;;23.70;47.50;;;;;;6184900;23;20167;-67
2023/06/03 03:17:45;;;;;;;4.53;3.70;;;23.70;47.50;;;;;;6185569;23;20605;-68
2023/06/03 03:20:12;;;;;;;5.47;3.70;;;23.70;47.60;;;;;;6185389;23;20402;-67
2023/06/03 03:22:44;;;;;;;5.30;3.80;;;23.70;47.50;;;;;;6158760;23;20422;-68
2023/06/03 03:25:10;;;;;;;3.97;3.40;;;23.60;47.50;;;;;;6184563;23;20395;-68
2023/06/03 03:27:36;;;;;;;5.53;3.90;;;23.60;47.50;;;;;;6158682;23;20394;-68
2023/06/03 03:30:02;;;;;;;5.30;3.60;;;23.60;47.50;;;;;;6158404;23;20724;-69
2023/06/03 03:32:28;;;;;;;4.27;3.87;;;23.60;47.50;;;;;;6184206;23;20160;-68
2023/06/03 03:35:18;;;;;;;4.17;3.10;;;23.60;47.40;;;;;;6184153;23;20733;-68
2023/06/03 03:37:45;;;;;;;6.10;4.63;;;23.60;47.20;;;;;;6184441;23;20218;-69
2023/06/03 03:40:22;;;;;;;5.03;3.13;;;23.60;47.20;;;;;;6183789;23;20382;-68
2023/06/03 03:42:52;;;;;;;4.30;3.90;;;23.60;47.20;;;;;;6184853;23;20884;-68
2023/06/03 03:45:20;;;;;;;5.07;4.00;;;23.60;47.20;;;;;;6184819;23;20391;-68
2023/06/03 03:47:50;;;;;;;6.10;3.93;;;23.60;47.20;;;;;;6184940;23;20865;-67
2023/06/03 03:50:34;;;;;;;4.13;3.77;;;23.60;47.30;;;;;;6158364;23;20390;-68
2023/06/03 03:53:03;;;;;;;4.97;4.33;;;23.60;47.30;;;;;;6184787;23;20433;-67
2023/06/03 03:55:29;;;;;;;4.10;3.53;;;23.60;47.20;;;;;;6184761;23;20403;-67
2023/06/03 03:57:55;;;;;;;4.57;3.40;;;23.60;47.30;;;;;;6184973;23;20857;-69
2023/06/03 04:00:22;;;;;;;4.50;3.53;;;23.60;47.30;;;;;;6184876;23;20235;-68
2023/06/03 04:02:51;;;;;;;5.27;3.60;;;23.60;47.30;;;;;;6184792;23;20238;-68
2023/06/03 04:05:17;;;;;;;6.53;3.30;;;23.60;47.20;;;;;;6184866;23;20395;-67
2023/06/03 04:07:48;;;;;;;3.90;3.30;;;23.60;47.20;;;;;;6184694;23;20835;-68
2023/06/03 04:10:14;;;;;;;4.63;3.27;;;23.60;47.20;;;;;;6184738;23;20132;-68
2023/06/03 04:12:39;;;;;;;4.33;2.70;;;23.60;47.20;;;;;;6184513;23;20375;-68
2023/06/03 04:15:06;;;;;;;5.13;3.73;;;23.60;47.10;;;;;;6184748;23;20395;-68
2023/06/03 04:17:36;;;;;;;3.97;3.57;;;23.60;47.10;;;;;;6184599;23;20148;-67
2023/06/03 04:20:05;;;;;;;4.37;2.80;;;23.60;47.20;;;;;;6184776;23;20374;-68
2023/06/03 04:22:32;;;;;;;3.47;3.17;;;23.60;47.20;;;;;;6184614;23;20473;-68
2023/06/03 04:25:00;;;;;;;3.37;3.00;;;23.60;47.20;;;;;;6157809;23;20433;-69
2023/06/03 04:27:26;;;;;;;4.60;3.60;;;23.60;47.20;;;;;;6184666;23;20459;-68
2023/06/03 04:29:52;;;;;;;5.17;3.60;;;23.60;47.10;;;;;;6184422;23;20379;-68
2023/06/03 04:32:18;;;;;;;3.40;3.00;;;23.60;47.20;;;;;;6184425;23;20468;-68
2023/06/03 04:34:54;;;;;;;2.97;2.50;;;23.60;47.20;;;;;;6184237;23;20395;-68
2023/06/03 04:37:21;;;;;;;3.27;2.97;;;23.60;47.40;;;;;;6184345;23;20177;-67
2023/06/03 04:39:46;;;;;;;4.03;3.17;;;23.60;47.50;;;;;;6184290;23;20403;-69
2023/06/03 04:42:12;;;;;;;3.77;3.00;;;23.60;47.60;;;;;;6184289;23;20418;-66
2023/06/03 04:44:42;;;;;;;3.83;3.30;;;23.70;47.80;;;;;;6158009;23;20209;-68
2023/06/03 04:47:11;;;;;;;3.27;3.00;;;23.70;47.90;;;;;;6184261;23;20425;-68
2023/06/03 04:49:40;;;;;;;5.57;3.20;;;23.70;47.90;;;;;;6184194;23;20426;-68
2023/06/03 04:52:10;;;;;;;3.47;2.77;;;23.70;47.90;;;;;;6184268;23;20386;-69
2023/06/03 04:54:36;;;;;;;4.77;2.97;;;23.70;47.90;;;;;;6157774;23;20421;-68
2023/06/03 04:57:02;;;;;;;5.63;2.93;;;23.70;48.00;;;;;;6184087;23;20422;-68
2023/06/03 04:59:28;;;;;;;3.07;2.73;;;23.70;48.10;;;;;;6133390;23;20387;-68
2023/06/03 05:01:54;;;;;;;3.07;2.80;;;23.70;48.00;;;;;;6184069;23;20471;-68
2023/06/03 05:04:19;;;;;;;3.43;3.10;;;23.70;48.00;;;;;;6184062;23;20174;-69
2023/06/03 05:06:46;;;;;;;3.73;2.80;;;23.70;48.00;;;;;;6184081;23;20151;-68
2023/06/03 05:09:13;;;;;;;3.80;2.90;;;23.70;48.00;;;;;;6184171;23;20147;-69
2023/06/03 05:11:38;;;;;;;4.07;2.60;;;23.70;48.00;;;;;;6184126;23;20402;-67
2023/06/03 05:14:04;;;;;;;3.20;2.90;;;23.70;47.90;;;;;;6183987;23;20453;-69
2023/06/03 05:16:30;;;;;;;3.30;2.83;;;23.70;48.00;;;;;;6184066;23;20155;-68
2023/06/03 05:18:55;;;;;;;5.20;2.70;;;23.80;48.10;;;;;;6157631;23;20595;-68
2023/06/03 05:21:21;;;;;;;3.33;3.03;;;23.80;48.00;;;;;;6184035;23;20151;-68
2023/06/03 05:23:47;;;;;;;2.97;2.67;;;23.80;48.00;;;;;;6183825;23;20722;-69
2023/06/03 05:26:12;;;;;;;2.80;2.53;;;23.80;48.00;;;;;;6184084;23;20475;-67
2023/06/03 05:28:38;;;;;;;2.77;2.47;;;23.80;48.00;;;;;;6184115;23;20572;-68
2023/06/03 05:31:03;;;;;;;3.43;2.70;;;23.80;47.90;;;;;;6184103;23;20155;-69
2023/06/03 05:33:30;;;;;;;3.40;2.40;;;23.80;48.00;;;;;;6183971;23;20605;-69
2023/06/03 05:35:56;;;;;;;3.30;2.63;;;23.80;48.60;;;;;;6184301;23;20202;-68
2023/06/03 05:38:22;;;;;;;2.87;2.60;;;23.80;48.00;;;;;;6183983;23;20379;-68
2023/06/03 05:40:51;;;;;;;3.30;2.47;;;23.80;48.00;;;;;;6184287;23;20159;-68
2023/06/03 05:43:18;;;;;;;5.07;4.00;;;23.80;47.90;;;;;;6183844;23;20464;-68
2023/06/03 05:45:44;;;;;;;2.27;2.00;;;23.80;48.50;;;;;;6184014;23;20375;-69
2023/06/03 05:48:10;;;;;;;2.93;2.27;;;23.80;47.90;;;;;;6185581;23;20457;-69
2023/06/03 05:50:38;;;;;;;2.30;2.10;;;23.80;47.90;;;;;;6185966;23;20398;-67
2023/06/03 05:53:04;;;;;;;3.60;2.53;;;23.80;47.90;;;;;;6186027;23;20230;-68
2023/06/03 05:55:31;;;;;;;3.10;2.77;;;23.80;47.90;;;;;;6185692;23;20399;-68
2023/06/03 05:57:56;;;;;;;2.60;2.40;;;23.80;47.90;;;;;;6185868;23;20748;-69
2023/06/03 06:00:22;;;;;;;2.87;2.10;;;23.80;47.90;;;;;;6185801;23;20459;-68
2023/06/03 06:02:48;;;;;;;3.23;2.30;;;23.80;47.90;;;;;;6185702;23;20182;-68
2023/06/03 06:05:14;;;;;;;2.17;1.87;;;23.80;47.80;;;;;;6185628;23;20257;-69
2023/06/03 06:07:40;;;;;;;2.70;2.43;;;23.80;47.90;;;;;;6185669;23;20147;-68
2023/06/03 06:10:06;;;;;;;2.40;2.20;;;23.80;47.90;;;;;;6185696;23;20742;-68
2023/06/03 06:12:32;;;;;;;2.80;2.60;;;23.80;48.00;;;;;;6185714;23;20154;-67
2023/06/03 06:14:57;;;;;;;3.33;2.37;;;23.80;48.00;;;;;;6185658;23;20394;-69
2023/06/03 06:17:23;;;;;;;2.90;1.67;;;23.80;48.10;;;;;;6185690;23;20163;-68
2023/06/03 06:19:49;;;;;;;2.93;2.60;;;23.80;48.10;;;;;;6185634;23;20155;-68
2023/06/03 06:22:14;;;;;;;3.37;2.00;;;23.80;48.10;;;;;;6185534;23;20240;-68
2023/06/03 06:24:41;;;;;;;3.80;2.83;;;23.80;48.10;;;;;;6185550;23;20623;-68
2023/06/03 06:27:07;;;;;;;2.97;2.67;;;23.80;48.10;;;;;;6185577;23;20156;-68
2023/06/03 06:29:32;;;;;;;3.90;2.53;;;23.80;48.10;;;;;;6185579;23;20403;-68
2023/06/03 06:31:59;;;;;;;5.50;3.00;;;23.80;48.10;;;;;;6185390;23;20371;-69
2023/06/03 06:34:29;;;;;;;2.60;2.17;;;23.80;48.00;;;;;;6185384;23;20218;-69
2023/06/03 06:36:55;;;;;;;2.93;2.30;;;23.80;48.10;;;;;;6185394;23;20372;-70
2023/06/03 06:39:33;;;;;;;3.03;2.37;;;23.80;48.10;;;;;;6185448;23;20418;-68
2023/06/03 06:42:07;;;;;;;3.03;2.20;;;23.90;48.20;;;;;;6185219;23;20371;-67
2023/06/03 06:44:46;;;;;;;2.73;2.50;;;23.90;48.20;;;;;;6185521;23;20439;-67
2023/06/03 06:47:14;;;;;;;2.90;2.60;;;23.80;48.10;;;;;;6185348;23;20446;-68
2023/06/03 06:49:40;;;;;;;3.97;2.50;;;23.90;48.30;;;;;;6185399;23;20450;-68
2023/06/03 06:52:09;;;;;;;2.97;2.40;;;23.80;48.20;;;;;;6185318;23;20784;-68
2023/06/03 06:54:34;;;;;;;2.50;2.00;;;23.90;48.30;;;;;;6184709;23;20398;-67
2023/06/03 06:57:00;;;;;;;6.13;3.07;;;23.90;48.30;;;;;;6185125;23;20878;-67
2023/06/03 06:59:26;;;;;;;3.10;2.60;;;23.90;48.20;;;;;;6185172;23;20182;-68
2023/06/03 07:01:51;;;;;;;3.37;2.53;;;23.90;48.30;;;;;;6185097;23;20156;-68
2023/06/03 07:04:17;;;;;;;2.53;2.33;;;23.90;48.30;;;;;;6185006;23;20479;-68
2023/06/03 07:06:42;;;;;;;2.90;2.70;;;23.90;48.30;;;;;;6184326;23;20198;-68
2023/06/03 07:09:08;;;;;;;2.97;2.17;;;23.90;48.30;;;;;;6184873;23;20223;-69
2023/06/03 07:11:42;;;;;;;2.93;2.20;;;23.90;48.30;;;;;;6182387;23;20171;-67
2023/06/03 07:14:07;;;;;;;2.70;2.43;;;23.90;48.30;;;;;;6184952;23;20217;-68
2023/06/03 07:16:33;;;;;;;2.60;2.40;;;23.90;48.40;;;;;;6185078;23;20387;-68
2023/06/03 07:18:59;;;;;;;3.07;2.77;;;23.90;48.50;;;;;;6185043;23;20152;-69
2023/06/03 07:21:25;;;;;;;3.87;2.40;;;23.90;48.50;;;;;;6185024;23;20217;-68
2023/06/03 07:23:51;;;;;;;2.53;2.30;;;23.90;48.50;;;;;;6185078;23;20423;-68
2023/06/03 07:26:18;;;;;;;2.50;2.30;;;23.90;48.50;;;;;;6158521;23;20787;-68
2023/06/03 07:28:47;;;;;;;3.50;2.47;;;23.90;48.40;;;;;;6184850;23;20178;-68
2023/06/03 07:31:12;;;;;;;3.07;2.37;;;23.90;48.30;;;;;;6184914;23;20371;-68
2023/06/03 07:33:52;;;;;;;3.93;2.50;;;23.90;48.30;;;;;;6184811;23;20441;-69
2023/06/03 07:36:24;;;;;;;2.17;1.97;;;23.90;48.30;;;;;;6185261;23;20583;-68
2023/06/03 07:39:08;;;;;;;2.77;2.27;;;23.90;48.40;;;;;;6185129;23;20446;-69
2023/06/03 07:41:50;;;;;;;3.07;2.37;;;23.90;48.30;;;;;;6184881;23;20366;-67
2023/06/03 07:44:24;;;;;;;4.83;2.47;;;23.90;48.30;;;;;;6184721;23;20402;-67
2023/06/03 07:46:57;;;;;;;2.93;2.10;;;23.90;48.40;;;;;;6184845;23;20350;-69
2023/06/03 07:49:23;;;;;;;2.30;2.03;;;23.90;48.30;;;;;;6184706;23;20710;-69
2023/06/03 07:51:51;;;;;;;2.47;2.10;;;23.90;48.40;;;;;;6184755;23;20410;-69
2023/06/03 07:54:17;;;;;;;2.17;1.97;;;23.90;48.40;;;;;;6184493;23;20382;-69
2023/06/03 07:56:44;;;;;;;2.37;2.17;;;23.90;48.40;;;;;;6184516;23;20390;-68
2023/06/03 07:59:12;;;;;;;3.00;2.37;;;23.90;48.40;;;;;;6184589;23;20370;-69
2023/06/03 08:01:38;;;;;;;3.30;2.40;;;23.90;48.40;;;;;;6184602;23;20799;-68
2023/06/03 08:04:20;;;;;;;4.93;2.20;;;23.90;48.40;;;;;;6184378;23;20438;-69
2023/06/03 08:06:46;;;;;;;3.53;2.07;;;23.90;48.40;;;;;;6184556;23;20367;-68
2023/06/03 08:09:35;;;;;;;2.60;1.90;;;24.00;48.50;;;;;;6184494;23;20716;-68
2023/06/03 08:12:03;;;;;;;2.93;2.20;;;24.00;48.50;;;;;;6184609;23;20356;-69
2023/06/03 08:14:34;;;;;;;2.40;2.20;;;23.90;48.50;;;;;;6184369;23;20465;-68
2023/06/03 08:17:12;;;;;;;2.73;1.97;;;24.00;48.60;;;;;;6184517;23;20994;-67
2023/06/03 08:19:39;;;;;;;2.50;2.00;;;24.00;48.60;;;;;;6184742;23;20410;-68
2023/06/03 08:22:30;;;;;;;2.10;1.90;;;23.90;48.60;;;;;;6157897;23;20434;-68
2023/06/03 08:24:56;;;;;;;3.93;2.63;;;24.00;48.70;;;;;;6173751;23;20453;-69
2023/06/03 08:27:21;;;;;;;2.20;2.00;;;23.90;48.70;;;;;;6184348;23;20695;-68
2023/06/03 08:29:47;;;;;;;3.43;2.27;;;23.90;48.70;;;;;;6184711;23;20243;-68
2023/06/03 08:32:12;;;;;;;2.87;1.90;;;23.90;48.70;;;;;;6184269;23;20166;-68
2023/06/03 08:34:38;;;;;;;3.53;2.30;;;23.90;48.70;;;;;;6184618;23;20195;-69
2023/06/03 08:37:04;;;;;;;3.40;2.13;;;23.90;48.70;;;;;;6157876;23;20163;-68
2023/06/03 08:39:29;;;;;;;2.90;2.07;;;23.90;48.70;;;;;;6157858;23;20473;-68
2023/06/03 08:42:05;;;;;;;3.40;2.20;;;23.90;48.70;;;;;;6184106;23;20371;-70
2023/06/03 08:44:44;;;;;;;2.37;2.07;;;23.90;48.70;;;;;;6184150;23;20178;-68
2023/06/03 08:47:16;;;;;;;2.23;2.03;;;24.00;48.80;;;;;;6184244;23;20359;-68
2023/06/03 08:49:59;;;;;;;3.10;2.07;;;23.90;48.70;;;;;;6157791;23;20387;-69
2023/06/03 08:52:27;;;;;;;3.63;2.60;;;24.00;48.80;;;;;;6184083;23;20373;-68
2023/06/03 08:54:56;;;;;;;3.27;2.33;;;23.90;48.70;;;;;;6183996;23;20386;-69
2023/06/03 08:57:22;;;;;;;2.87;2.33;;;23.90;48.70;;;;;;6184042;23;20410;-68
2023/06/03 08:59:52;;;;;;;1.97;1.77;;;23.90;48.80;;;;;;6184100;23;20371;-69
2023/06/03 09:02:18;;;;;;;2.30;1.90;;;24.00;48.80;;;;;;6184059;23;20417;-68
2023/06/03 09:04:47;;;;;;;3.23;2.20;;;23.90;48.80;;;;;;6183908;23;20858;-69
2023/06/03 09:07:13;;;;;;;2.50;2.00;;;23.90;48.70;;;;;;6184017;23;20721;-68
2023/06/03 09:09:40;;;;;;;3.10;2.60;;;23.90;48.80;;;;;;6184050;23;20379;-69
2023/06/03 09:12:06;;;;;;;2.27;2.07;;;23.90;48.80;;;;;;6184202;23;20379;-67
2023/06/03 09:14:33;;;;;;;2.50;2.00;;;23.90;48.80;;;;;;6184057;23;20986;-69
2023/06/03 09:17:00;;;;;;;2.37;2.17;;;23.90;48.70;;;;;;6184056;23;20367;-68
2023/06/03 09:19:30;;;;;;;4.23;2.30;;;23.90;48.80;;;;;;6184082;23;20458;-68
2023/06/03 09:21:56;;;;;;;3.80;2.70;;;23.90;48.70;;;;;;6183474;23;20434;-68
2023/06/03 09:24:22;;;;;;;2.60;2.30;;;23.90;48.70;;;;;;6183970;23;20395;-68
2023/06/03 09:26:48;;;;;;;2.57;2.30;;;23.90;48.80;;;;;;6184347;23;20383;-68
2023/06/03 09:29:14;;;;;;;2.80;2.37;;;23.90;48.80;;;;;;6184098;23;20390;-69
2023/06/03 09:31:41;;;;;;;2.77;2.10;;;23.90;49.30;;;;;;6157617;23;20156;-68
2023/06/03 09:34:07;;;;;;;2.87;2.17;;;23.90;48.80;;;;;;6183890;23;20405;-68
2023/06/03 09:36:43;;;;;;;2.10;1.80;;;23.90;48.80;;;;;;6183951;23;20458;-69
2023/06/03 09:39:10;;;;;;;3.00;2.00;;;24.00;48.80;;;;;;6184096;23;20450;-68
2023/06/03 09:41:36;;;;;;;3.10;2.40;;;23.90;48.80;;;;;;6183908;23;20474;-68
2023/06/03 09:44:06;;;;;;;2.50;1.90;;;23.90;48.80;;;;;;6184065;23;20514;-70
2023/06/03 09:46:32;;;;;;;2.17;1.90;;;23.90;48.80;;;;;;6183892;23;20915;-69
2023/06/03 09:49:12;;;;;;;3.77;2.33;;;23.90;48.80;;;;;;6184023;23;20421;-69
2023/06/03 09:51:42;;;;;;;2.10;1.90;;;23.90;48.80;;;;;;6184169;23;20359;-69
2023/06/03 09:54:13;;;;;;;2.53;2.30;;;23.90;48.80;;;;;;6183676;23;20463;-69
2023/06/03 09:56:40;;;;;;;2.13;1.93;;;23.90;48.80;;;;;;6183969;23;20835;-70
2023/06/03 09:59:23;;;;;;;2.50;2.07;;;23.90;48.80;;;;;;6184149;23;20466;-67
2023/06/03 10:01:51;;;;;;;2.43;2.00;;;24.00;48.90;;;;;;6183800;23;20386;-69
2023/06/03 10:04:39;;;;;;;2.27;2.00;;;23.90;48.80;;;;;;6157584;23;20435;-69
2023/06/03 10:07:13;;;;;;;2.77;1.90;;;23.90;48.90;;;;;;6183893;23;20830;-69
2023/06/03 10:09:44;;;;;;;4.13;1.90;;;23.90;48.90;;;;;;6184045;23;20374;-68
2023/06/03 10:12:10;;;;;;;3.80;2.30;;;23.90;48.90;;;;;;6184265;23;20685;-69
2023/06/03 10:14:48;;;;;;;2.80;2.00;;;23.90;48.90;;;;;;6184191;23;20525;-70
2023/06/03 10:17:16;;;;;;;2.30;2.03;;;23.90;48.90;;;;;;6184178;23;20360;-69
2023/06/03 10:19:44;;;;;;;3.43;2.47;;;23.90;48.90;;;;;;6184257;23;20375;-70
2023/06/03 10:22:12;;;;;;;2.50;2.17;;;23.90;48.90;;;;;;6183978;23;20881;-69
2023/06/03 10:24:40;;;;;;;3.80;2.50;;;23.90;48.90;;;;;;6157649;23;20395;-69
2023/06/03 10:27:06;;;;;;;2.50;2.10;;;23.90;48.90;;;;;;6184119;23;20395;-69
2023/06/03 10:29:33;;;;;;;2.90;2.37;;;23.90;49.50;;;;;;6184355;23;20425;-69
2023/06/03 10:32:04;;;;;;;2.73;2.10;;;23.90;49.00;;;;;;6183953;23;20366;-69
2023/06/03 10:34:31;;;;;;;2.47;2.27;;;23.90;48.90;;;;;;6185527;23;20395;-70
2023/06/03 10:36:57;;;;;;;2.50;2.30;;;23.90;48.90;;;;;;6186015;23;20367;-69
2023/06/03 10:39:27;;;;;;;3.20;2.13;;;23.90;49.00;;;;;;6185942;23;20457;-69
2023/06/03 10:41:56;;;;;;;2.97;2.20;;;23.90;49.00;;;;;;6186201;23;20375;-69
2023/06/03 10:44:22;;;;;;;2.50;2.30;;;23.90;49.00;;;;;;6185817;23;20418;-68
2023/06/03 10:47:15;;;;;;;2.30;2.00;;;23.90;49.00;;;;;;6185935;23;20371;-68
2023/06/03 10:49:51;;;;;;;3.97;2.60;;;23.90;49.00;;;;;;6185793;23;20343;-69
2023/06/03 10:52:31;;;;;;;3.37;2.40;;;23.90;49.00;;;;;;6185651;23;20853;-70
2023/06/03 10:55:13;;;;;;;2.30;1.90;;;23.90;49.00;;;;;;6185448;23;20379;-68
2023/06/03 10:57:51;;;;;;;5.03;2.33;;;23.90;49.00;;;;;;6185412;23;20870;-68
2023/06/03 11:00:51;;;;;;;2.83;2.47;;;23.90;49.10;;;;;;6185597;23;20413;-70
2023/06/03 11:03:18;;;;;;;2.47;1.80;;;23.90;49.10;;;;;;6180674;23;20509;-69
2023/06/03 11:05:45;;;;;;;2.07;1.83;;;23.90;49.10;;;;;;6185618;23;20387;-68
2023/06/03 11:08:11;;;;;;;2.30;2.10;;;23.90;49.10;;;;;;6185371;23;20368;-69
2023/06/03 11:10:36;;;;;;;4.23;2.53;;;23.90;49.20;;;;;;6185648;23;20389;-68
2023/06/03 11:13:03;;;;;;;4.30;2.50;;;23.90;49.20;;;;;;6185870;23;20379;-68
2023/06/03 11:15:57;;;;;;;2.93;2.30;;;23.90;49.20;;;;;;6185509;23;20172;-69
2023/06/03 11:18:22;;;;;;;2.80;2.20;;;23.90;49.10;;;;;;6185428;23;20378;-68
2023/06/03 11:20:48;;;;;;;3.60;2.20;;;23.90;49.20;;;;;;6159264;23;20379;-68
2023/06/03 11:23:42;;;;;;;2.27;1.90;;;23.90;49.20;;;;;;6185498;23;20171;-68
2023/06/03 11:26:34;;;;;;;2.67;2.47;;;23.90;49.10;;;;;;6185131;23;20155;-68
2023/06/03 11:29:02;;;;;;;3.40;2.20;;;23.90;49.20;;;;;;6185443;23;20375;-69
2023/06/03 11:31:29;;;;;;;2.60;2.07;;;23.90;49.20;;;;;;6185488;23;20371;-68
2023/06/03 11:34:25;;;;;;;2.33;2.07;;;23.90;49.20;;;;;;6158628;23;20407;-68
2023/06/03 11:36:57;;;;;;;4.60;2.33;;;23.90;49.20;;;;;;6185590;23;20454;-69
2023/06/03 11:39:23;;;;;;;2.30;2.10;;;23.90;49.30;;;;;;6185306;23;20416;-69
2023/06/03 11:42:08;;;;;;;2.53;2.17;;;23.90;49.30;;;;;;6185194;23;20378;-69
2023/06/03 11:44:35;;;;;;;2.73;2.37;;;23.90;49.20;;;;;;6185194;23;20410;-68
2023/06/03 11:47:00;;;;;;;2.57;1.80;;;23.90;49.30;;;;;;6185185;23;20482;-69
2023/06/03 11:49:26;;;;;;;2.73;1.97;;;23.90;49.30;;;;;;6185190;23;20394;-69
2023/06/03 11:51:58;;;;;;;2.00;1.80;;;23.90;49.30;;;;;;6158619;23;20175;-69
2023/06/03 11:54:23;;;;;;;2.53;2.10;;;23.90;49.30;;;;;;6158787;23;20182;-70
2023/06/03 11:56:51;;;;;;;2.30;1.90;;;23.90;49.30;;;;;;6184904;23;20741;-69
2023/06/03 11:59:20;;;;;;;2.43;2.03;;;23.90;49.30;;;;;;6185093;23;20144;-69
2023/06/03 12:01:59;;;;;;;2.47;2.23;;;23.90;49.30;;;;;;6184954;23;20410;-68
2023/06/03 12:04:25;;;;;;;2.73;2.07;;;23.90;49.30;;;;;;6184804;23;20407;-70
2023/06/03 12:06:52;;;;;;;2.80;1.90;;;23.90;49.30;;;;;;6184815;23;20454;-69
2023/06/03 12:09:19;;;;;;;3.23;2.50;;;23.90;49.30;;;;;;6185267;23;20375;-68
2023/06/03 12:11:45;;;;;;;2.77;2.30;;;23.90;49.30;;;;;;6185370;23;20873;-69
2023/06/03 12:14:25;;;;;;;3.07;2.07;;;23.90;49.30;;;;;;6184700;23;20411;-69
2023/06/03 12:16:52;;;;;;;2.10;1.90;;;23.90;49.30;;;;;;6185235;23;20487;-69
2023/06/03 12:19:17;;;;;;;2.60;2.33;;;23.90;49.30;;;;;;6184650;23;20395;-69
2023/06/03 12:21:43;;;;;;;2.90;2.50;;;23.90;49.30;;;;;;6184779;23;20375;-69
2023/06/03 12:24:10;;;;;;;2.57;1.90;;;23.90;49.30;;;;;;6184621;23;20262;-69
2023/06/03 12:26:38;;;;;;;2.10;1.90;;;23.90;49.30;;;;;;6158093;23;20147;-69
2023/06/03 12:29:05;;;;;;;3.30;2.33;;;23.90;49.30;;;;;;6184687;23;20375;-67
2023/06/03 12:31:31;;;;;;;3.23;2.30;;;23.90;49.30;;;;;;6158079;23;20446;-69
2023/06/03 12:33:57;;;;;;;2.47;2.20;;;23.90;49.40;;;;;;6184428;23;20403;-67
2023/06/03 12:36:22;;;;;;;2.33;2.13;;;23.90;49.40;;;;;;6184566;23;20549;-68
2023/06/03 12:38:59;;;;;;;3.27;2.27;;;23.90;49.40;;;;;;6184455;23;20181;-67
2023/06/03 12:41:25;;;;;;;2.67;1.93;;;23.90;49.30;;;;;;6184708;23;20818;-66
2023/06/03 12:44:04;;;;;;;4.87;1.97;;;23.90;49.40;;;;;;6184405;23;20469;-69
2023/06/03 12:46:30;;;;;;;3.07;2.17;;;23.90;49.40;;;;;;6184794;23;20371;-69
2023/06/03 12:48:58;;;;;;;2.90;2.20;;;23.90;49.40;;;;;;6184843;23;20480;-70
2023/06/03 12:51:29;;;;;;;2.43;2.23;;;23.90;49.40;;;;;;6184381;23;20386;-69
2023/06/03 12:53:55;;;;;;;2.13;1.90;;;23.90;49.40;;;;;;6184518;23;20391;-69
2023/06/03 12:56:31;;;;;;;2.57;1.90;;;23.90;49.40;;;;;;6184671;23;20817;-69